Francisco Romero

Olheiro - Millonarios
19 Ago 2027
Quinta-feira
Processo

Personalidade

Adaptabilidade (2) Ambição (3) Controvérsia (7) Lealdade (19) Pressão (8) Profissionalismo (18) Espírito Esportivo (19) Temperamento (4)

Perfil

Estilo de Treinamento Democrático
Licença Continental B
Determinação 7
Gestão de Pessoas 7
Motivação 10
Disciplina 7
Satisfação no Trabalho
84%
Fadiga
0%
Função Olheiro
Salário 79.9K p/s
Contrato 14.03.2028

Desempenho

Comportamento Bom
Eficácia do Treinamento
37%
Desenvolvimento do Jogador
65%
Prevenção de Lesões
65%
Implementação Tática
35%

Eventos Recentes

Participou de uma reunião de recrutamento 7d atrás
Recomendou um alvo de transferência 7d atrás
Participou de uma reunião de recrutamento 14d atrás
Recomendou um alvo de transferência 14d atrás
Participou de uma reunião de recrutamento 21d atrás
Recomendou um alvo de transferência 21d atrás
Participou de uma reunião de recrutamento 28d atrás
Recomendou um alvo de transferência 28d atrás

Monitorando agora

115
Jogador Clube Status Habilidade Confiança Observado Última observação Último voto
Kevin Tamayo Leones Ativo 116 / 105 69% 1 05.07.2027 Aprovar
Corey Addai Stockport County Ativo 96 / 105 40% 1 31.05.2027 -
Daniel Iversen Preston Ativo 142 / 120 40% 1 31.05.2027 -
Aidan Morris Middlesbrough Ativo 122 / 127 40% 2 28.05.2027 -
Max Bird Birmingham Ativo 132 / 141 40% 2 28.05.2027 -
Adilson Malanda Middlesbrough Ativo 126 / 120 40% 1 28.05.2027 -
Ryan Sessegnon Fulham Ativo 141 / 159 40% 2 27.05.2027 -
Oliver Skipp Leicester City Ativo 122 / 144 40% 1 27.05.2027 -
Brian De Keersmaecker Oxford United Ativo 114 / 112 40% 1 27.05.2027 -
Ethan Galbraith Swansea City Ativo 123 / 118 40% 3 26.05.2027 -
Lewis Bate Stockport County Ativo 119 / 130 40% 1 26.05.2027 -
Harry Clarke Preston Ativo 118 / 122 40% 4 22.05.2027 -
Juanlu Bournemouth Ativo 157 / 160 40% 2 22.05.2027 -
Leif Davis Ipswich Town Ativo 139 / 138 40% 1 22.05.2027 -
Quinten Timber Crystal Palace Ativo 158 / 139 40% 2 18.05.2027 -
Shea Charles Southampton Ativo 148 / 127 40% 1 18.05.2027 -
Derry Murkin Derby County Ativo 120 / 142 40% 1 16.05.2027 -
Ousmane Diomande Nottingham Forest Ativo 142 / 160 40% 1 16.05.2027 -
Jacques Ekomié Wrexham Ativo 123 / 128 40% 2 15.05.2027 -
Adam Wharton Crystal Palace Ativo 149 / 152 40% 2 13.05.2027 -
Yehor Yarmoliuk Brentford Ativo 159 / 146 40% 1 13.05.2027 -
Alessandro Buongiorno Sassuolo Ativo 148 / 151 40% 2 09.05.2027 -
Noah Sadiki Sunderland Ativo 133 / 148 40% 2 09.05.2027 -
Habib Diarra Sunderland Ativo 133 / 136 40% 1 07.05.2027 -
Kristoffer Lund Birmingham Ativo 119 / 116 40% 1 04.05.2027 -
Williams Manyama SuperSport United Ativo 117 / 121 40% 1 24.04.2027 -
Will Fish Cardiff City Ativo 111 / 126 40% 1 24.04.2027 -
Kellen Fisher Norwich City Ativo 120 / 113 40% 1 24.04.2027 -
Tomás Ribeiro Cultural Leonesa Ativo 114 / 126 40% 2 16.04.2027 -
Nathan Collins Brentford Ativo 144 / 152 40% 1 14.04.2027 -
Alfie Doughty Millwall Ativo 132 / 134 40% 1 11.04.2027 -
Darlin Yongwa Norwich City Ativo 121 / 112 40% 1 11.04.2027 -
Rubén Duarte Legia Ativo 140 / 145 40% 1 30.11.2026 -
Ross McCrorie Bristol City Ativo 122 / 114 40% 1 30.11.2026 -
Santiago González Tigre Ativo 126 / 119 40% 3 28.11.2026 -
Rodrigo Herrera Newell's Old Boys Ativo 116 / 127 40% 1 28.11.2026 -
Brodie Spencer Oxford United Ativo 120 / 115 40% 1 27.11.2026 -
Stefano Moreyra Independiente Rivadavia Ativo 115 / 125 40% 1 27.11.2026 -
Ignacio Rodríguez Racing Club Ativo 129 / 126 40% 1 27.11.2026 -
Lukáš Červ Viktoria Plzen Ativo 128 / 118 40% 1 27.11.2026 -
Israel Reyes CSKA Moscow Ativo 130 / 121 40% 1 27.11.2026 -
Facundo Zabala Independiente Ativo 119 / 128 40% 1 27.11.2026 -
Emanuel Coronel Rosario Central Ativo 125 / 129 40% 3 26.11.2026 -
Iván Villalba Independiente Rivadavia Ativo 124 / 112 40% 1 26.11.2026 -
César Ibáñez Huracán Ativo 124 / 118 40% 4 24.11.2026 -
Joaquín García Vélez Ativo 120 / 134 40% 3 24.11.2026 -
Martín Garay Tigre Ativo 115 / 125 40% 1 24.11.2026 -
Martín Ortega Newell's Old Boys Ativo 120 / 113 40% 2 23.11.2026 -
Joaquim Tigres Ativo 134 / 121 40% 3 22.11.2026 -
Lucas Arce CFR Cluj Ativo 126 / 115 40% 1 22.11.2026 -
Adrián Sánchez Belgrano Ativo 121 / 122 40% 2 21.11.2026 -
Francisco Álvarez Argentinos Juniors Ativo 120 / 129 40% 2 21.11.2026 -
Pedro Vite Pumas UNAM Ativo 119 / 114 40% 3 21.11.2026 -
Alan Cervantes Club America Ativo 126 / 130 40% 1 21.11.2026 -
Lucas Souto Defensa y Justicia Ativo 126 / 120 40% 3 19.11.2026 -
Jackson Porozo Tijuana Ativo 111 / 107 40% 2 19.11.2026 -
Pablo Monroy Pumas UNAM Ativo 125 / 117 40% 2 19.11.2026 -
Alejandro Gómez Tijuana Ativo 118 / 127 40% 1 19.11.2026 -
Cristian Calderón Pumas UNAM Ativo 132 / 126 40% 1 19.11.2026 -
Willer Ditta Cruz Azul Ativo 143 / 145 40% 1 19.11.2026 -
Mandla Erasmus SuperSport United Ativo 131 / 117 40% 1 16.11.2026 -
Ramón Juárez Club America Ativo 133 / 131 40% 2 15.11.2026 -
Emanuel Mammana Vélez Ativo 137 / 123 40% 1 15.11.2026 -
Erick Reyes Toluca Ativo 135 / 131 40% 7 14.11.2026 Observar
Bruno Méndez Toluca Ativo 122 / 124 40% 1 13.11.2026 -
Nazareno Colombo Racing Club Ativo 122 / 121 40% 2 12.11.2026 -
Jesús Angulo Tigres Ativo 131 / 137 40% 1 12.11.2026 -
Gerardo Arteaga Monterrey Ativo 122 / 131 40% 1 12.11.2026 -
Omar Campos Cruz Azul Ativo 117 / 124 40% 1 10.11.2026 -
Facundo Vila Estudiantes Ativo 107 / 106 40% 2 08.11.2026 -
Pablo Bennevendo Pumas UNAM Ativo 115 / 121 40% 1 08.11.2026 -
Aarón Mejía Tijuana Ativo 114 / 119 40% 1 08.11.2026 -
Lorenzo Palmisani Frosinone Ativo 112 / 129 40% 1 08.11.2026 -
Richard Ledezma Guadalajara Ativo 140 / 124 40% 2 05.11.2026 -
Gabriel Neves Estudiantes Ativo 134 / 124 40% 1 05.11.2026 -
Leandro Lozano Boca Juniors Ativo 131 / 116 40% 1 05.11.2026 -
Jhohan Romaña Leon Ativo 127 / 138 40% 1 04.11.2026 -
Strahinja Manojlović Radnicki Nis Ativo 113 / 119 40% 1 03.11.2026 -
Killian Cahill Leyton Orient Ativo 107 / 88 40% 4 02.11.2026 -
Santiago Núñez Estudiantes Ativo 122 / 123 40% 2 02.11.2026 -
Manuel Capasso Atlas Ativo 130 / 115 40% 1 02.11.2026 -
Radek Vítek Middlesbrough Ativo 143 / 134 40% 1 31.10.2026 -
Sebastián Jaume Albion Ativo 91 / 107 40% 2 27.10.2026 -
Ángel González Libertad Ativo 102 / 97 40% 2 26.10.2026 -
Kostantis Tzolakis Hull City Ativo 151 / 129 40% 1 26.10.2026 -
Robin Roefs Sunderland Ativo 153 / 125 40% 1 26.10.2026 -
Lautaro Bursich Talleres Ativo 95 / 91 40% 2 25.10.2026 -
Jesús Orozco Chiquete Cruz Azul Ativo 132 / 139 40% 2 25.10.2026 -
Franco Ibarra Rosario Central Ativo 128 / 126 40% 1 25.10.2026 -
Laureano Martínez Talleres Ativo 101 / 100 40% 1 24.10.2026 -
Siro Rosané Estudiantes Ativo 121 / 108 40% 1 22.10.2026 -
José Florentín Independiente Rivadavia Ativo 129 / 115 40% 1 22.10.2026 -
Nahuel Galardi Maipú Ativo 112 / 119 40% 1 20.10.2026 -
Ángel Maciel Tacuarembo Ativo 103 / 102 40% 1 20.10.2026 -
Jherson Mosquera Newell's Old Boys Ativo 130 / 115 40% 1 19.10.2026 -
Adalberto Carrasquilla Pumas UNAM Ativo 128 / 137 40% 1 17.10.2026 -
Nicolás Paz San Martín SJ Ativo 126 / 122 40% 1 17.10.2026 -
Santiago Simón Toluca Ativo 116 / 112 40% 1 09.10.2026 -
Daniel Herrera San Lorenzo Ativo 125 / 116 40% 1 09.10.2026 -
Augusto Schott Talleres Ativo 117 / 132 40% 1 09.10.2026 -
James Cardona La Equidad Ativo 144 / 151 40% 1 08.10.2026 -
Vicente Poggi Godoy Cruz Ativo 125 / 132 40% 1 08.10.2026 -
Bruno Antúnez Boston River Ativo 108 / 121 40% 1 06.10.2026 -
Juan Carlos Portillo River Plate Ativo 126 / 128 40% 1 05.10.2026 -
Felipe Peña Biafore Lanús Ativo 121 / 127 40% 1 05.10.2026 -
John Amah Plateau United Ativo 87 / 104 40% 1 26.09.2026 -
Vincent Edafe Warri Wolves Ativo 88 / 107 40% 1 10.09.2026 -
Ángel Espínola Sportivo Luqueno Ativo 95 / 112 40% 3 09.09.2026 -
Facundo Miño Deportivo Riestra Ativo 120 / 131 40% 1 09.09.2026 -
Víctor Guzmán Monterrey Ativo 138 / 137 40% 1 09.09.2026 -
Isaac Boehmer Vancouver Whitecaps Ativo 97 / 109 40% 1 02.09.2026 -
Franco Herrera Viitorul Ativo 97 / 114 40% 2 15.08.2026 -
Iván Alejo Valladolid Ativo 119 / 110 40% 1 02.08.2026 -
Leonardo Borja La Equidad Ativo 137 / 135 40% 1 02.08.2026 -
Joaquín Canadell Quilmes Ativo 101 / 102 40% 1 02.08.2026 -